Terminal Aerodrome Forecast
Issued by NWS Dodge City, KS

Home | Current Version | Previous Version | Graphics & Text | Print | Product List | Glossary Off
Versions: 1 2 3 4 5 6 7 8 9 10 11 12 13 14 15 16 17 18 19 20 21 22 23 24

000
FTUS43 KDDC 260653 AAA
TAFDDC
TAF AMD
KDDC 260653Z 2607/2706 07003KT P6SM BKN015
      TEMPO 2610/2614 3SM BR OVC010
     FM261600 09007KT P6SM BKN050
     FM261900 15012KT P6SM BKN070=

USA.gov is the U.S. government's official web portal to all federal, state and local government web resources and services.